sensor_id;sensor_type;location;lat;lon;timestamp;P1;durP1;ratioP1;P2;durP2;ratioP2
5054;SDS011;13829;48.990;8.346;2023-12-29T00:00:58;4.67;;;4.17;;
5054;SDS011;13829;48.990;8.346;2023-12-29T00:03:26;5.53;;;3.80;;
5054;SDS011;13829;48.990;8.346;2023-12-29T00:05:53;5.43;;;3.87;;
5054;SDS011;13829;48.990;8.346;2023-12-29T00:08:20;5.03;;;3.80;;
5054;SDS011;13829;48.990;8.346;2023-12-29T00:10:47;4.57;;;3.93;;
5054;SDS011;13829;48.990;8.346;2023-12-29T00:13:14;4.47;;;4.07;;
5054;SDS011;13829;48.990;8.346;2023-12-29T00:15:49;5.70;;;4.37;;
5054;SDS011;13829;48.990;8.346;2023-12-29T00:18:18;5.50;;;4.20;;
5054;SDS011;13829;48.990;8.346;2023-12-29T00:20:45;6.33;;;4.43;;
5054;SDS011;13829;48.990;8.346;2023-12-29T00:23:13;5.97;;;4.60;;
5054;SDS011;13829;48.990;8.346;2023-12-29T00:25:40;4.73;;;4.30;;
5054;SDS011;13829;48.990;8.346;2023-12-29T00:28:07;7.43;;;5.07;;
5054;SDS011;13829;48.990;8.346;2023-12-29T00:30:37;6.23;;;4.60;;
5054;SDS011;13829;48.990;8.346;2023-12-29T00:33:07;5.37;;;4.87;;
5054;SDS011;13829;48.990;8.346;2023-12-29T00:35:36;6.33;;;4.87;;
5054;SDS011;13829;48.990;8.346;2023-12-29T00:38:04;6.10;;;5.33;;
5054;SDS011;13829;48.990;8.346;2023-12-29T00:40:31;5.93;;;4.70;;
5054;SDS011;13829;48.990;8.346;2023-12-29T00:42:59;5.47;;;4.63;;
5054;SDS011;13829;48.990;8.346;2023-12-29T00:45:27;5.27;;;4.60;;
5054;SDS011;13829;48.990;8.346;2023-12-29T00:47:57;5.10;;;4.27;;
5054;SDS011;13829;48.990;8.346;2023-12-29T00:50:26;6.17;;;5.33;;
5054;SDS011;13829;48.990;8.346;2023-12-29T00:52:53;5.23;;;4.73;;
5054;SDS011;13829;48.990;8.346;2023-12-29T00:55:20;5.27;;;4.60;;
5054;SDS011;13829;48.990;8.346;2023-12-29T00:57:47;6.30;;;4.70;;
5054;SDS011;13829;48.990;8.346;2023-12-29T01:00:14;4.97;;;4.30;;
5054;SDS011;13829;48.990;8.346;2023-12-29T01:02:41;7.03;;;4.87;;
5054;SDS011;13829;48.990;8.346;2023-12-29T01:05:08;6.83;;;4.33;;
5054;SDS011;13829;48.990;8.346;2023-12-29T01:07:37;5.20;;;4.57;;
5054;SDS011;13829;48.990;8.346;2023-12-29T01:10:04;5.30;;;4.33;;
5054;SDS011;13829;48.990;8.346;2023-12-29T01:12:33;5.90;;;4.63;;
5054;SDS011;13829;48.990;8.346;2023-12-29T01:15:00;6.70;;;5.10;;
5054;SDS011;13829;48.990;8.346;2023-12-29T01:17:27;5.30;;;4.23;;
5054;SDS011;13829;48.990;8.346;2023-12-29T01:19:54;5.00;;;4.50;;
5054;SDS011;13829;48.990;8.346;2023-12-29T01:22:21;7.03;;;4.77;;
5054;SDS011;13829;48.990;8.346;2023-12-29T01:24:49;5.20;;;4.20;;
5054;SDS011;13829;48.990;8.346;2023-12-29T01:27:16;6.67;;;4.77;;
5054;SDS011;13829;48.990;8.346;2023-12-29T01:29:43;6.73;;;4.50;;
5054;SDS011;13829;48.990;8.346;2023-12-29T01:32:10;6.50;;;4.80;;
5054;SDS011;13829;48.990;8.346;2023-12-29T01:34:37;5.03;;;4.43;;
5054;SDS011;13829;48.990;8.346;2023-12-29T01:37:04;6.27;;;5.13;;
5054;SDS011;13829;48.990;8.346;2023-12-29T01:39:32;5.87;;;5.27;;
5054;SDS011;13829;48.990;8.346;2023-12-29T01:42:02;5.23;;;4.73;;
5054;SDS011;13829;48.990;8.346;2023-12-29T01:44:29;6.10;;;5.50;;
5054;SDS011;13829;48.990;8.346;2023-12-29T01:46:59;7.00;;;5.30;;
5054;SDS011;13829;48.990;8.346;2023-12-29T01:49:27;5.33;;;4.47;;
5054;SDS011;13829;48.990;8.346;2023-12-29T01:51:56;6.27;;;4.73;;
5054;SDS011;13829;48.990;8.346;2023-12-29T01:54:28;7.10;;;4.93;;
5054;SDS011;13829;48.990;8.346;2023-12-29T01:57:02;5.03;;;4.53;;
5054;SDS011;13829;48.990;8.346;2023-12-29T01:59:29;5.43;;;4.70;;
5054;SDS011;13829;48.990;8.346;2023-12-29T02:01:58;6.40;;;4.90;;
5054;SDS011;13829;48.990;8.346;2023-12-29T02:04:25;6.67;;;5.43;;
5054;SDS011;13829;48.990;8.346;2023-12-29T02:06:54;5.10;;;4.60;;
5054;SDS011;13829;48.990;8.346;2023-12-29T02:09:21;5.90;;;4.53;;
5054;SDS011;13829;48.990;8.346;2023-12-29T02:11:49;5.17;;;4.30;;
5054;SDS011;13829;48.990;8.346;2023-12-29T02:14:17;4.93;;;4.50;;
5054;SDS011;13829;48.990;8.346;2023-12-29T02:16:48;5.83;;;4.47;;
5054;SDS011;13829;48.990;8.346;2023-12-29T02:19:31;6.17;;;4.43;;
5054;SDS011;13829;48.990;8.346;2023-12-29T02:22:05;5.63;;;4.07;;
5054;SDS011;13829;48.990;8.346;2023-12-29T02:24:33;4.70;;;3.80;;
5054;SDS011;13829;48.990;8.346;2023-12-29T02:27:05;4.97;;;3.50;;
5054;SDS011;13829;48.990;8.346;2023-12-29T02:29:45;5.23;;;3.90;;
5054;SDS011;13829;48.990;8.346;2023-12-29T02:32:28;5.10;;;4.60;;
5054;SDS011;13829;48.990;8.346;2023-12-29T02:34:56;4.23;;;3.47;;
5054;SDS011;13829;48.990;8.346;2023-12-29T02:37:26;4.13;;;3.73;;
5054;SDS011;13829;48.990;8.346;2023-12-29T02:39:55;5.20;;;4.27;;
5054;SDS011;13829;48.990;8.346;2023-12-29T02:42:25;4.73;;;3.83;;
5054;SDS011;13829;48.990;8.346;2023-12-29T02:44:52;5.47;;;4.10;;
5054;SDS011;13829;48.990;8.346;2023-12-29T02:47:19;5.47;;;4.43;;
5054;SDS011;13829;48.990;8.346;2023-12-29T02:49:46;4.67;;;4.23;;
5054;SDS011;13829;48.990;8.346;2023-12-29T02:52:14;7.93;;;3.97;;
5054;SDS011;13829;48.990;8.346;2023-12-29T02:54:41;4.10;;;3.70;;
5054;SDS011;13829;48.990;8.346;2023-12-29T02:57:08;4.40;;;4.00;;
5054;SDS011;13829;48.990;8.346;2023-12-29T02:59:37;5.27;;;3.80;;
5054;SDS011;13829;48.990;8.346;2023-12-29T03:02:04;5.20;;;4.17;;
5054;SDS011;13829;48.990;8.346;2023-12-29T03:04:31;5.80;;;4.27;;
5054;SDS011;13829;48.990;8.346;2023-12-29T03:06:57;5.13;;;3.80;;
5054;SDS011;13829;48.990;8.346;2023-12-29T03:09:24;4.53;;;4.07;;
5054;SDS011;13829;48.990;8.346;2023-12-29T03:11:51;5.23;;;4.30;;
5054;SDS011;13829;48.990;8.346;2023-12-29T03:14:18;3.73;;;3.30;;
5054;SDS011;13829;48.990;8.346;2023-12-29T03:16:47;4.50;;;3.80;;
5054;SDS011;13829;48.990;8.346;2023-12-29T03:19:14;4.77;;;3.80;;
5054;SDS011;13829;48.990;8.346;2023-12-29T03:21:41;4.33;;;3.27;;
5054;SDS011;13829;48.990;8.346;2023-12-29T03:24:08;3.97;;;3.30;;
5054;SDS011;13829;48.990;8.346;2023-12-29T03:26:35;4.30;;;3.27;;
5054;SDS011;13829;48.990;8.346;2023-12-29T03:29:02;6.77;;;3.53;;
5054;SDS011;13829;48.990;8.346;2023-12-29T03:31:29;3.60;;;3.10;;
5054;SDS011;13829;48.990;8.346;2023-12-29T03:33:57;3.47;;;3.17;;
5054;SDS011;13829;48.990;8.346;2023-12-29T03:36:24;3.23;;;2.90;;
5054;SDS011;13829;48.990;8.346;2023-12-29T03:38:51;4.20;;;3.77;;
5054;SDS011;13829;48.990;8.346;2023-12-29T03:41:18;5.40;;;3.63;;
5054;SDS011;13829;48.990;8.346;2023-12-29T03:43:45;5.17;;;3.80;;
5054;SDS011;13829;48.990;8.346;2023-12-29T03:46:15;4.63;;;3.93;;
5054;SDS011;13829;48.990;8.346;2023-12-29T03:48:43;4.47;;;3.93;;
5054;SDS011;13829;48.990;8.346;2023-12-29T03:51:12;4.47;;;3.90;;
5054;SDS011;13829;48.990;8.346;2023-12-29T03:53:39;4.23;;;3.83;;
5054;SDS011;13829;48.990;8.346;2023-12-29T03:56:07;4.50;;;4.00;;
5054;SDS011;13829;48.990;8.346;2023-12-29T03:58:35;4.63;;;3.97;;
5054;SDS011;13829;48.990;8.346;2023-12-29T04:01:02;5.03;;;4.23;;
5054;SDS011;13829;48.990;8.346;2023-12-29T04:03:29;4.60;;;3.93;;
5054;SDS011;13829;48.990;8.346;2023-12-29T04:05:56;5.50;;;4.33;;
5054;SDS011;13829;48.990;8.346;2023-12-29T04:08:24;5.63;;;4.20;;
5054;SDS011;13829;48.990;8.346;2023-12-29T04:10:51;7.10;;;4.13;;
5054;SDS011;13829;48.990;8.346;2023-12-29T04:13:18;9.47;;;4.57;;
5054;SDS011;13829;48.990;8.346;2023-12-29T04:15:45;4.83;;;3.93;;
5054;SDS011;13829;48.990;8.346;2023-12-29T04:18:12;6.67;;;4.73;;
5054;SDS011;13829;48.990;8.346;2023-12-29T04:20:39;4.37;;;3.97;;
5054;SDS011;13829;48.990;8.346;2023-12-29T04:23:06;4.20;;;3.80;;
5054;SDS011;13829;48.990;8.346;2023-12-29T04:25:35;4.20;;;3.70;;
5054;SDS011;13829;48.990;8.346;2023-12-29T04:28:02;4.00;;;3.60;;
5054;SDS011;13829;48.990;8.346;2023-12-29T04:30:30;4.33;;;3.93;;
5054;SDS011;13829;48.990;8.346;2023-12-29T04:32:57;5.20;;;3.97;;
5054;SDS011;13829;48.990;8.346;2023-12-29T04:35:24;5.03;;;3.70;;
5054;SDS011;13829;48.990;8.346;2023-12-29T04:37:51;4.30;;;3.90;;
5054;SDS011;13829;48.990;8.346;2023-12-29T04:40:18;5.47;;;4.13;;
5054;SDS011;13829;48.990;8.346;2023-12-29T04:42:46;5.47;;;4.27;;
5054;SDS011;13829;48.990;8.346;2023-12-29T04:45:13;4.20;;;3.73;;
5054;SDS011;13829;48.990;8.346;2023-12-29T04:47:40;4.50;;;4.10;;
5054;SDS011;13829;48.990;8.346;2023-12-29T04:50:07;4.50;;;3.70;;
5054;SDS011;13829;48.990;8.346;2023-12-29T04:52:35;4.90;;;4.27;;
5054;SDS011;13829;48.990;8.346;2023-12-29T04:55:02;6.83;;;4.57;;
5054;SDS011;13829;48.990;8.346;2023-12-29T04:57:29;4.10;;;3.57;;
5054;SDS011;13829;48.990;8.346;2023-12-29T04:59:57;4.10;;;3.70;;
5054;SDS011;13829;48.990;8.346;2023-12-29T05:02:24;5.07;;;4.03;;
5054;SDS011;13829;48.990;8.346;2023-12-29T05:04:51;4.50;;;4.03;;
5054;SDS011;13829;48.990;8.346;2023-12-29T05:07:18;6.73;;;4.20;;
5054;SDS011;13829;48.990;8.346;2023-12-29T05:09:45;4.50;;;4.10;;
5054;SDS011;13829;48.990;8.346;2023-12-29T05:12:12;4.67;;;3.63;;
5054;SDS011;13829;48.990;8.346;2023-12-29T05:14:40;4.97;;;4.10;;
5054;SDS011;13829;48.990;8.346;2023-12-29T05:17:09;4.33;;;3.93;;
5054;SDS011;13829;48.990;8.346;2023-12-29T05:19:36;5.33;;;4.30;;
5054;SDS011;13829;48.990;8.346;2023-12-29T05:22:03;4.60;;;4.00;;
5054;SDS011;13829;48.990;8.346;2023-12-29T05:24:30;5.10;;;4.20;;
5054;SDS011;13829;48.990;8.346;2023-12-29T05:26:56;4.97;;;4.47;;
5054;SDS011;13829;48.990;8.346;2023-12-29T05:29:24;4.10;;;3.70;;
5054;SDS011;13829;48.990;8.346;2023-12-29T05:31:51;4.13;;;3.73;;
5054;SDS011;13829;48.990;8.346;2023-12-29T05:34:19;5.13;;;4.23;;
5054;SDS011;13829;48.990;8.346;2023-12-29T05:36:46;4.20;;;3.70;;
5054;SDS011;13829;48.990;8.346;2023-12-29T05:39:13;4.63;;;4.07;;
5054;SDS011;13829;48.990;8.346;2023-12-29T05:41:40;5.30;;;4.50;;
5054;SDS011;13829;48.990;8.346;2023-12-29T05:44:07;4.40;;;4.00;;
5054;SDS011;13829;48.990;8.346;2023-12-29T05:46:34;6.03;;;4.30;;
5054;SDS011;13829;48.990;8.346;2023-12-29T05:49:01;4.33;;;3.67;;
5054;SDS011;13829;48.990;8.346;2023-12-29T05:51:30;4.17;;;3.77;;
5054;SDS011;13829;48.990;8.346;2023-12-29T05:53:57;4.23;;;3.87;;
5054;SDS011;13829;48.990;8.346;2023-12-29T05:56:24;4.90;;;4.10;;
5054;SDS011;13829;48.990;8.346;2023-12-29T05:58:51;4.53;;;4.13;;
5054;SDS011;13829;48.990;8.346;2023-12-29T06:01:19;5.90;;;4.40;;
5054;SDS011;13829;48.990;8.346;2023-12-29T06:03:46;6.53;;;3.93;;
5054;SDS011;13829;48.990;8.346;2023-12-29T06:06:13;5.03;;;4.33;;
5054;SDS011;13829;48.990;8.346;2023-12-29T06:08:41;4.50;;;3.90;;
5054;SDS011;13829;48.990;8.346;2023-12-29T06:11:08;6.37;;;4.27;;
5054;SDS011;13829;48.990;8.346;2023-12-29T06:13:40;4.07;;;3.63;;
5054;SDS011;13829;48.990;8.346;2023-12-29T06:16:08;4.33;;;3.77;;
5054;SDS011;13829;48.990;8.346;2023-12-29T06:18:35;4.50;;;4.03;;
5054;SDS011;13829;48.990;8.346;2023-12-29T06:21:02;4.87;;;4.10;;
5054;SDS011;13829;48.990;8.346;2023-12-29T06:23:29;5.60;;;3.70;;
5054;SDS011;13829;48.990;8.346;2023-12-29T06:25:58;5.90;;;4.10;;
5054;SDS011;13829;48.990;8.346;2023-12-29T06:28:25;4.63;;;4.10;;
5054;SDS011;13829;48.990;8.346;2023-12-29T06:30:53;5.97;;;4.03;;
5054;SDS011;13829;48.990;8.346;2023-12-29T06:33:20;4.20;;;3.80;;
5054;SDS011;13829;48.990;8.346;2023-12-29T06:35:47;5.43;;;3.90;;
5054;SDS011;13829;48.990;8.346;2023-12-29T06:38:14;4.60;;;3.90;;
5054;SDS011;13829;48.990;8.346;2023-12-29T06:40:41;4.33;;;3.93;;
5054;SDS011;13829;48.990;8.346;2023-12-29T06:43:10;5.43;;;4.53;;
5054;SDS011;13829;48.990;8.346;2023-12-29T06:45:37;4.90;;;4.20;;
5054;SDS011;13829;48.990;8.346;2023-12-29T06:48:04;4.43;;;3.90;;
5054;SDS011;13829;48.990;8.346;2023-12-29T06:50:32;6.20;;;4.17;;
5054;SDS011;13829;48.990;8.346;2023-12-29T06:52:59;3.90;;;3.60;;
5054;SDS011;13829;48.990;8.346;2023-12-29T06:55:28;5.03;;;4.30;;
5054;SDS011;13829;48.990;8.346;2023-12-29T06:57:55;4.83;;;4.03;;
5054;SDS011;13829;48.990;8.346;2023-12-29T07:00:24;4.67;;;4.03;;
5054;SDS011;13829;48.990;8.346;2023-12-29T07:02:51;5.37;;;4.57;;
5054;SDS011;13829;48.990;8.346;2023-12-29T07:05:18;5.17;;;4.50;;
5054;SDS011;13829;48.990;8.346;2023-12-29T07:07:45;4.80;;;4.03;;
5054;SDS011;13829;48.990;8.346;2023-12-29T07:10:12;5.17;;;4.40;;
5054;SDS011;13829;48.990;8.346;2023-12-29T07:12:40;4.37;;;3.97;;
5054;SDS011;13829;48.990;8.346;2023-12-29T07:15:07;4.63;;;3.83;;
5054;SDS011;13829;48.990;8.346;2023-12-29T07:17:36;4.73;;;4.07;;
5054;SDS011;13829;48.990;8.346;2023-12-29T07:20:04;4.20;;;3.87;;
5054;SDS011;13829;48.990;8.346;2023-12-29T07:22:33;4.40;;;3.53;;
5054;SDS011;13829;48.990;8.346;2023-12-29T07:25:00;5.87;;;4.07;;
5054;SDS011;13829;48.990;8.346;2023-12-29T07:27:27;4.63;;;3.73;;
5054;SDS011;13829;48.990;8.346;2023-12-29T07:29:54;3.93;;;3.60;;
5054;SDS011;13829;48.990;8.346;2023-12-29T07:32:22;4.07;;;3.50;;
5054;SDS011;13829;48.990;8.346;2023-12-29T07:34:50;4.73;;;4.23;;
5054;SDS011;13829;48.990;8.346;2023-12-29T07:37:17;4.73;;;3.57;;
5054;SDS011;13829;48.990;8.346;2023-12-29T07:39:44;4.50;;;3.50;;
5054;SDS011;13829;48.990;8.346;2023-12-29T07:42:12;3.80;;;3.33;;
5054;SDS011;13829;48.990;8.346;2023-12-29T07:44:41;3.53;;;3.23;;
5054;SDS011;13829;48.990;8.346;2023-12-29T07:47:09;4.60;;;3.70;;
5054;SDS011;13829;48.990;8.346;2023-12-29T07:49:36;3.93;;;3.50;;
5054;SDS011;13829;48.990;8.346;2023-12-29T07:52:05;4.73;;;3.90;;
5054;SDS011;13829;48.990;8.346;2023-12-29T07:54:32;5.20;;;3.73;;
5054;SDS011;13829;48.990;8.346;2023-12-29T07:56:59;5.07;;;3.80;;
5054;SDS011;13829;48.990;8.346;2023-12-29T07:59:26;4.00;;;3.60;;
5054;SDS011;13829;48.990;8.346;2023-12-29T08:01:53;5.03;;;3.53;;
5054;SDS011;13829;48.990;8.346;2023-12-29T08:04:22;5.33;;;4.20;;
5054;SDS011;13829;48.990;8.346;2023-12-29T08:06:49;5.10;;;3.80;;
5054;SDS011;13829;48.990;8.346;2023-12-29T08:09:18;4.53;;;4.00;;
5054;SDS011;13829;48.990;8.346;2023-12-29T08:11:46;5.30;;;3.77;;
5054;SDS011;13829;48.990;8.346;2023-12-29T08:14:13;6.33;;;3.77;;
5054;SDS011;13829;48.990;8.346;2023-12-29T08:16:40;5.13;;;4.13;;
5054;SDS011;13829;48.990;8.346;2023-12-29T08:19:07;5.30;;;3.80;;
5054;SDS011;13829;48.990;8.346;2023-12-29T08:21:35;5.30;;;3.47;;
5054;SDS011;13829;48.990;8.346;2023-12-29T08:24:02;3.70;;;3.40;;
5054;SDS011;13829;48.990;8.346;2023-12-29T08:26:31;4.70;;;3.90;;
5054;SDS011;13829;48.990;8.346;2023-12-29T08:28:58;4.83;;;3.90;;
5054;SDS011;13829;48.990;8.346;2023-12-29T08:31:25;5.00;;;3.43;;
5054;SDS011;13829;48.990;8.346;2023-12-29T08:33:54;4.37;;;3.97;;
5054;SDS011;13829;48.990;8.346;2023-12-29T08:36:21;4.80;;;3.73;;
5054;SDS011;13829;48.990;8.346;2023-12-29T08:38:48;5.43;;;3.60;;
5054;SDS011;13829;48.990;8.346;2023-12-29T08:41:15;3.97;;;3.63;;
5054;SDS011;13829;48.990;8.346;2023-12-29T08:43:44;4.83;;;3.67;;
5054;SDS011;13829;48.990;8.346;2023-12-29T08:46:11;3.93;;;3.33;;
5054;SDS011;13829;48.990;8.346;2023-12-29T08:48:38;4.27;;;3.73;;
5054;SDS011;13829;48.990;8.346;2023-12-29T08:51:05;7.17;;;3.93;;
5054;SDS011;13829;48.990;8.346;2023-12-29T08:53:32;4.77;;;3.87;;
5054;SDS011;13829;48.990;8.346;2023-12-29T08:56:00;5.00;;;3.80;;
5054;SDS011;13829;48.990;8.346;2023-12-29T08:58:28;4.00;;;3.60;;
5054;SDS011;13829;48.990;8.346;2023-12-29T09:00:57;3.70;;;3.40;;
5054;SDS011;13829;48.990;8.346;2023-12-29T09:03:25;4.53;;;3.37;;
5054;SDS011;13829;48.990;8.346;2023-12-29T09:05:52;3.70;;;3.40;;
5054;SDS011;13829;48.990;8.346;2023-12-29T09:08:20;3.73;;;3.20;;
5054;SDS011;13829;48.990;8.346;2023-12-29T09:10:47;3.47;;;3.17;;
5054;SDS011;13829;48.990;8.346;2023-12-29T09:13:14;6.10;;;3.50;;
5054;SDS011;13829;48.990;8.346;2023-12-29T09:15:41;3.70;;;3.17;;
5054;SDS011;13829;48.990;8.346;2023-12-29T09:18:09;4.43;;;3.43;;
5054;SDS011;13829;48.990;8.346;2023-12-29T09:20:37;5.63;;;3.27;;
5054;SDS011;13829;48.990;8.346;2023-12-29T09:23:04;4.13;;;3.60;;
5054;SDS011;13829;48.990;8.346;2023-12-29T09:25:31;4.53;;;3.30;;
5054;SDS011;13829;48.990;8.346;2023-12-29T09:28:02;5.10;;;3.03;;
5054;SDS011;13829;48.990;8.346;2023-12-29T09:30:29;3.57;;;3.27;;
5054;SDS011;13829;48.990;8.346;2023-12-29T09:32:57;3.40;;;3.10;;
5054;SDS011;13829;48.990;8.346;2023-12-29T09:35:25;3.40;;;3.00;;
5054;SDS011;13829;48.990;8.346;2023-12-29T09:37:52;3.60;;;2.83;;
5054;SDS011;13829;48.990;8.346;2023-12-29T09:40:19;3.97;;;3.20;;
5054;SDS011;13829;48.990;8.346;2023-12-29T09:42:46;2.83;;;2.60;;
5054;SDS011;13829;48.990;8.346;2023-12-29T09:45:15;3.07;;;2.70;;
5054;SDS011;13829;48.990;8.346;2023-12-29T09:47:50;5.10;;;2.40;;
5054;SDS011;13829;48.990;8.346;2023-12-29T09:50:19;2.80;;;2.53;;
5054;SDS011;13829;48.990;8.346;2023-12-29T09:52:49;2.90;;;2.30;;
5054;SDS011;13829;48.990;8.346;2023-12-29T09:55:17;3.57;;;2.70;;
5054;SDS011;13829;48.990;8.346;2023-12-29T09:57:46;5.90;;;2.50;;
5054;SDS011;13829;48.990;8.346;2023-12-29T10:00:15;3.00;;;2.17;;
5054;SDS011;13829;48.990;8.346;2023-12-29T10:02:45;2.43;;;2.23;;
5054;SDS011;13829;48.990;8.346;2023-12-29T10:05:17;3.00;;;2.33;;
5054;SDS011;13829;48.990;8.346;2023-12-29T10:07:44;2.40;;;2.20;;
5054;SDS011;13829;48.990;8.346;2023-12-29T10:10:16;3.50;;;2.23;;
5054;SDS011;13829;48.990;8.346;2023-12-29T10:12:43;2.57;;;2.33;;
5054;SDS011;13829;48.990;8.346;2023-12-29T10:15:15;2.57;;;2.00;;
5054;SDS011;13829;48.990;8.346;2023-12-29T10:17:51;2.30;;;2.10;;
5054;SDS011;13829;48.990;8.346;2023-12-29T10:20:32;3.13;;;2.20;;
5054;SDS011;13829;48.990;8.346;2023-12-29T10:23:12;2.30;;;2.10;;
5054;SDS011;13829;48.990;8.346;2023-12-29T10:25:47;2.80;;;2.30;;
5054;SDS011;13829;48.990;8.346;2023-12-29T10:28:14;3.03;;;2.17;;
5054;SDS011;13829;48.990;8.346;2023-12-29T10:30:43;2.50;;;2.30;;
5054;SDS011;13829;48.990;8.346;2023-12-29T10:33:10;2.43;;;2.23;;
5054;SDS011;13829;48.990;8.346;2023-12-29T10:35:56;2.40;;;2.20;;
5054;SDS011;13829;48.990;8.346;2023-12-29T10:38:29;3.67;;;1.87;;
5054;SDS011;13829;48.990;8.346;2023-12-29T10:41:00;2.23;;;2.03;;
5054;SDS011;13829;48.990;8.346;2023-12-29T10:43:38;2.23;;;2.03;;
5054;SDS011;13829;48.990;8.346;2023-12-29T10:46:05;4.10;;;2.67;;
5054;SDS011;13829;48.990;8.346;2023-12-29T10:48:34;2.03;;;1.77;;
5054;SDS011;13829;48.990;8.346;2023-12-29T10:51:01;2.23;;;1.70;;
5054;SDS011;13829;48.990;8.346;2023-12-29T10:53:31;3.17;;;2.27;;
5054;SDS011;13829;48.990;8.346;2023-12-29T10:55:59;2.77;;;1.90;;
5054;SDS011;13829;48.990;8.346;2023-12-29T10:58:26;2.40;;;2.20;;
5054;SDS011;13829;48.990;8.346;2023-12-29T11:00:54;2.43;;;1.70;;
5054;SDS011;13829;48.990;8.346;2023-12-29T11:03:22;2.30;;;2.10;;
5054;SDS011;13829;48.990;8.346;2023-12-29T11:05:49;2.57;;;1.87;;
5054;SDS011;13829;48.990;8.346;2023-12-29T11:08:25;2.10;;;1.90;;
5054;SDS011;13829;48.990;8.346;2023-12-29T11:10:53;1.67;;;1.53;;
5054;SDS011;13829;48.990;8.346;2023-12-29T11:13:21;1.57;;;1.33;;
5054;SDS011;13829;48.990;8.346;2023-12-29T11:15:48;1.57;;;1.47;;
5054;SDS011;13829;48.990;8.346;2023-12-29T11:18:19;1.67;;;1.53;;
5054;SDS011;13829;48.990;8.346;2023-12-29T11:20:46;2.23;;;1.83;;
5054;SDS011;13829;48.990;8.346;2023-12-29T11:23:13;1.53;;;1.43;;
5054;SDS011;13829;48.990;8.346;2023-12-29T11:25:41;3.13;;;1.87;;
5054;SDS011;13829;48.990;8.346;2023-12-29T11:28:12;2.03;;;1.73;;
5054;SDS011;13829;48.990;8.346;2023-12-29T11:30:40;2.27;;;1.67;;
5054;SDS011;13829;48.990;8.346;2023-12-29T11:33:08;2.50;;;1.90;;
5054;SDS011;13829;48.990;8.346;2023-12-29T11:35:44;1.90;;;1.70;;
5054;SDS011;13829;48.990;8.346;2023-12-29T11:38:23;2.80;;;1.87;;
5054;SDS011;13829;48.990;8.346;2023-12-29T11:41:05;2.03;;;1.83;;
5054;SDS011;13829;48.990;8.346;2023-12-29T11:43:41;1.90;;;1.67;;
5054;SDS011;13829;48.990;8.346;2023-12-29T11:46:14;1.80;;;1.50;;
5054;SDS011;13829;48.990;8.346;2023-12-29T11:48:59;2.97;;;2.00;;
5054;SDS011;13829;48.990;8.346;2023-12-29T11:51:29;1.83;;;1.63;;
5054;SDS011;13829;48.990;8.346;2023-12-29T11:53:59;1.77;;;1.67;;
5054;SDS011;13829;48.990;8.346;2023-12-29T11:56:30;2.23;;;1.60;;
5054;SDS011;13829;48.990;8.346;2023-12-29T11:59:15;2.67;;;1.73;;
5054;SDS011;13829;48.990;8.346;2023-12-29T12:01:46;2.83;;;1.97;;
5054;SDS011;13829;48.990;8.346;2023-12-29T12:07:06;3.33;;;1.90;;
5054;SDS011;13829;48.990;8.346;2023-12-29T12:09:36;2.30;;;2.07;;
5054;SDS011;13829;48.990;8.346;2023-12-29T12:12:03;2.10;;;1.87;;
5054;SDS011;13829;48.990;8.346;2023-12-29T12:14:51;4.63;;;2.03;;
5054;SDS011;13829;48.990;8.346;2023-12-29T12:17:27;5.00;;;1.60;;
5054;SDS011;13829;48.990;8.346;2023-12-29T12:19:59;2.07;;;1.87;;
5054;SDS011;13829;48.990;8.346;2023-12-29T12:22:30;2.17;;;1.97;;
5054;SDS011;13829;48.990;8.346;2023-12-29T12:24:58;3.13;;;1.83;;
5054;SDS011;13829;48.990;8.346;2023-12-29T12:27:26;3.40;;;2.03;;
5054;SDS011;13829;48.990;8.346;2023-12-29T12:29:56;2.53;;;2.10;;
5054;SDS011;13829;48.990;8.346;2023-12-29T12:32:25;2.30;;;2.10;;
5054;SDS011;13829;48.990;8.346;2023-12-29T12:34:53;4.30;;;2.00;;
5054;SDS011;13829;48.990;8.346;2023-12-29T12:37:21;2.00;;;1.70;;
5054;SDS011;13829;48.990;8.346;2023-12-29T12:39:49;2.17;;;1.90;;
5054;SDS011;13829;48.990;8.346;2023-12-29T12:42:18;2.60;;;2.40;;
5054;SDS011;13829;48.990;8.346;2023-12-29T12:44:49;4.47;;;2.20;;
5054;SDS011;13829;48.990;8.346;2023-12-29T12:47:32;2.53;;;1.90;;
5054;SDS011;13829;48.990;8.346;2023-12-29T12:50:04;2.70;;;2.03;;
5054;SDS011;13829;48.990;8.346;2023-12-29T12:52:35;2.73;;;1.83;;
5054;SDS011;13829;48.990;8.346;2023-12-29T12:55:02;3.07;;;2.40;;
5054;SDS011;13829;48.990;8.346;2023-12-29T12:57:31;2.10;;;1.80;;
5054;SDS011;13829;48.990;8.346;2023-12-29T13:00:00;1.70;;;1.60;;
5054;SDS011;13829;48.990;8.346;2023-12-29T13:02:31;2.20;;;1.83;;
5054;SDS011;13829;48.990;8.346;2023-12-29T13:05:00;2.10;;;1.73;;
5054;SDS011;13829;48.990;8.346;2023-12-29T13:07:32;2.43;;;1.80;;
5054;SDS011;13829;48.990;8.346;2023-12-29T13:10:00;2.10;;;1.80;;
5054;SDS011;13829;48.990;8.346;2023-12-29T13:12:29;3.80;;;1.70;;
5054;SDS011;13829;48.990;8.346;2023-12-29T13:15:05;2.13;;;1.70;;
5054;SDS011;13829;48.990;8.346;2023-12-29T13:17:34;2.73;;;1.60;;
5054;SDS011;13829;48.990;8.346;2023-12-29T13:20:01;1.97;;;1.80;;
5054;SDS011;13829;48.990;8.346;2023-12-29T13:22:29;1.80;;;1.70;;
5054;SDS011;13829;48.990;8.346;2023-12-29T13:24:57;2.70;;;1.97;;
5054;SDS011;13829;48.990;8.346;2023-12-29T13:27:24;2.00;;;1.80;;
5054;SDS011;13829;48.990;8.346;2023-12-29T13:29:52;1.67;;;1.50;;
5054;SDS011;13829;48.990;8.346;2023-12-29T13:32:21;2.97;;;1.60;;
5054;SDS011;13829;48.990;8.346;2023-12-29T13:34:54;2.90;;;2.10;;
5054;SDS011;13829;48.990;8.346;2023-12-29T13:37:33;2.03;;;1.70;;
5054;SDS011;13829;48.990;8.346;2023-12-29T13:40:13;1.90;;;1.70;;
5054;SDS011;13829;48.990;8.346;2023-12-29T13:42:48;1.77;;;1.47;;
5054;SDS011;13829;48.990;8.346;2023-12-29T13:45:23;2.10;;;1.90;;
5054;SDS011;13829;48.990;8.346;2023-12-29T13:47:53;4.70;;;1.60;;
5054;SDS011;13829;48.990;8.346;2023-12-29T13:50:22;1.73;;;1.60;;
5054;SDS011;13829;48.990;8.346;2023-12-29T13:52:49;2.57;;;1.60;;
5054;SDS011;13829;48.990;8.346;2023-12-29T13:55:20;2.70;;;1.50;;
5054;SDS011;13829;48.990;8.346;2023-12-29T13:57:48;1.87;;;1.53;;
5054;SDS011;13829;48.990;8.346;2023-12-29T14:00:16;1.93;;;1.70;;
5054;SDS011;13829;48.990;8.346;2023-12-29T14:02:47;2.10;;;1.77;;
5054;SDS011;13829;48.990;8.346;2023-12-29T14:05:32;2.10;;;1.73;;
5054;SDS011;13829;48.990;8.346;2023-12-29T14:08:08;2.17;;;1.60;;
5054;SDS011;13829;48.990;8.346;2023-12-29T14:10:44;2.23;;;1.70;;
5054;SDS011;13829;48.990;8.346;2023-12-29T14:13:12;2.03;;;1.57;;
5054;SDS011;13829;48.990;8.346;2023-12-29T14:15:42;2.20;;;1.60;;
5054;SDS011;13829;48.990;8.346;2023-12-29T14:18:22;2.53;;;1.70;;
5054;SDS011;13829;48.990;8.346;2023-12-29T14:21:22;2.03;;;1.70;;
5054;SDS011;13829;48.990;8.346;2023-12-29T14:24:02;2.50;;;1.50;;
5054;SDS011;13829;48.990;8.346;2023-12-29T14:26:36;1.77;;;1.57;;
5054;SDS011;13829;48.990;8.346;2023-12-29T14:29:05;1.97;;;1.40;;
5054;SDS011;13829;48.990;8.346;2023-12-29T14:31:34;1.47;;;1.20;;
5054;SDS011;13829;48.990;8.346;2023-12-29T14:34:05;1.67;;;1.57;;
5054;SDS011;13829;48.990;8.346;2023-12-29T14:36:33;3.13;;;1.50;;
5054;SDS011;13829;48.990;8.346;2023-12-29T14:39:02;1.50;;;1.40;;
5054;SDS011;13829;48.990;8.346;2023-12-29T14:41:31;1.83;;;1.60;;
5054;SDS011;13829;48.990;8.346;2023-12-29T14:43:58;1.57;;;1.43;;
5054;SDS011;13829;48.990;8.346;2023-12-29T14:46:25;2.03;;;1.40;;
5054;SDS011;13829;48.990;8.346;2023-12-29T14:48:53;1.80;;;1.40;;
5054;SDS011;13829;48.990;8.346;2023-12-29T14:51:23;2.33;;;1.37;;
5054;SDS011;13829;48.990;8.346;2023-12-29T14:53:50;1.83;;;1.50;;
5054;SDS011;13829;48.990;8.346;2023-12-29T14:56:18;2.90;;;1.53;;
5054;SDS011;13829;48.990;8.346;2023-12-29T14:58:45;2.10;;;1.50;;
5054;SDS011;13829;48.990;8.346;2023-12-29T15:01:12;2.37;;;1.77;;
5054;SDS011;13829;48.990;8.346;2023-12-29T15:03:39;2.00;;;1.80;;
5054;SDS011;13829;48.990;8.346;2023-12-29T15:06:06;2.30;;;1.63;;
5054;SDS011;13829;48.990;8.346;2023-12-29T15:08:34;3.00;;;1.70;;
5054;SDS011;13829;48.990;8.346;2023-12-29T15:11:02;2.13;;;1.70;;
5054;SDS011;13829;48.990;8.346;2023-12-29T15:13:32;1.90;;;1.70;;